sensor_id;sensor_type;location;lat;lon;timestamp;pressure;altitude;pressure_sealevel;temperature;humidity
45129;BME280;35512;56.312;101.728;2023-02-13T00:01:33;98289.94;;;-18.63;74.74
45129;BME280;35512;56.312;101.728;2023-02-13T00:04:03;98297.72;;;-18.84;74.45
45129;BME280;35512;56.312;101.728;2023-02-13T00:06:32;98296.72;;;-19.02;74.44
45129;BME280;35512;56.312;101.728;2023-02-13T00:09:01;98304.78;;;-19.17;74.57
45129;BME280;35512;56.312;101.728;2023-02-13T00:11:34;98298.06;;;-19.29;74.45
45129;BME280;35512;56.312;101.728;2023-02-13T00:14:02;98294.00;;;-19.32;74.80
45129;BME280;35512;56.312;101.728;2023-02-13T00:16:32;98294.44;;;-19.27;74.96
45129;BME280;35512;56.312;101.728;2023-02-13T00:19:01;98293.50;;;-19.26;74.77
45129;BME280;35512;56.312;101.728;2023-02-13T00:21:30;98298.91;;;-19.29;74.90
45129;BME280;35512;56.312;101.728;2023-02-13T00:23:59;98294.25;;;-19.35;74.67
45129;BME280;35512;56.312;101.728;2023-02-13T00:26:28;98293.81;;;-19.40;74.74
45129;BME280;35512;56.312;101.728;2023-02-13T00:28:57;98279.94;;;-19.49;74.72
45129;BME280;35512;56.312;101.728;2023-02-13T00:31:26;98281.44;;;-19.46;74.87
45129;BME280;35512;56.312;101.728;2023-02-13T00:33:55;98288.78;;;-19.42;74.72
45129;BME280;35512;56.312;101.728;2023-02-13T00:36:24;98290.56;;;-19.42;74.72
45129;BME280;35512;56.312;101.728;2023-02-13T00:38:53;98291.03;;;-19.48;74.57
45129;BME280;35512;56.312;101.728;2023-02-13T00:41:23;98288.72;;;-19.51;74.72
45129;BME280;35512;56.312;101.728;2023-02-13T00:43:52;98287.59;;;-19.59;74.50
45129;BME280;35512;56.312;101.728;2023-02-13T00:46:20;98294.38;;;-19.58;74.53
45129;BME280;35512;56.312;101.728;2023-02-13T00:48:49;98285.38;;;-19.63;74.73
45129;BME280;35512;56.312;101.728;2023-02-13T00:51:18;98284.84;;;-19.67;74.71
45129;BME280;35512;56.312;101.728;2023-02-13T00:53:47;98283.75;;;-19.64;74.83
45129;BME280;35512;56.312;101.728;2023-02-13T00:56:16;98274.56;;;-19.67;74.71
45129;BME280;35512;56.312;101.728;2023-02-13T00:58:45;98280.38;;;-19.65;74.76
45129;BME280;35512;56.312;101.728;2023-02-13T01:01:14;98279.56;;;-19.65;74.76
45129;BME280;35512;56.312;101.728;2023-02-13T01:03:44;98271.47;;;-19.61;74.70
45129;BME280;35512;56.312;101.728;2023-02-13T01:06:13;98277.72;;;-19.53;74.61
45129;BME280;35512;56.312;101.728;2023-02-13T01:08:41;98275.88;;;-19.51;74.40
45129;BME280;35512;56.312;101.728;2023-02-13T01:11:10;98266.75;;;-19.55;74.50
45129;BME280;35512;56.312;101.728;2023-02-13T01:13:39;98273.47;;;-19.43;74.56
45129;BME280;35512;56.312;101.728;2023-02-13T01:16:08;98277.22;;;-19.26;74.60
45129;BME280;35512;56.312;101.728;2023-02-13T01:18:37;98277.84;;;-18.62;75.11
45129;BME280;35512;56.312;101.728;2023-02-13T01:21:11;98269.75;;;-17.60;75.22
45129;BME280;35512;56.312;101.728;2023-02-13T01:23:42;98269.03;;;-17.23;74.21
45129;BME280;35512;56.312;101.728;2023-02-13T01:26:16;98269.91;;;-17.42;73.45
45129;BME280;35512;56.312;101.728;2023-02-13T01:28:46;98264.09;;;-17.63;73.58
45129;BME280;35512;56.312;101.728;2023-02-13T01:31:15;98270.88;;;-17.62;73.74
45129;BME280;35512;56.312;101.728;2023-02-13T01:33:44;98264.69;;;-17.22;74.46
45129;BME280;35512;56.312;101.728;2023-02-13T01:36:14;98251.34;;;-16.16;74.75
45129;BME280;35512;56.312;101.728;2023-02-13T01:38:43;98256.84;;;-14.70;74.27
45129;BME280;35512;56.312;101.728;2023-02-13T01:41:12;98252.59;;;-13.21;73.64
45129;BME280;35512;56.312;101.728;2023-02-13T01:46:18;98247.78;;;-10.61;71.44
45129;BME280;35512;56.312;101.728;2023-02-13T01:48:50;98246.69;;;-9.57;70.73
45129;BME280;35512;56.312;101.728;2023-02-13T01:51:24;98233.38;;;-8.70;69.70
45129;BME280;35512;56.312;101.728;2023-02-13T01:53:59;98237.53;;;-7.72;69.34
45129;BME280;35512;56.312;101.728;2023-02-13T01:56:33;98242.75;;;-6.78;68.58
45129;BME280;35512;56.312;101.728;2023-02-13T01:59:08;98243.84;;;-5.96;67.94
45129;BME280;35512;56.312;101.728;2023-02-13T02:01:38;98233.72;;;-5.60;66.74
45129;BME280;35512;56.312;101.728;2023-02-13T02:04:24;98247.38;;;-5.45;66.48
45129;BME280;35512;56.312;101.728;2023-02-13T02:07:10;98246.69;;;-5.33;66.36
45129;BME280;35512;56.312;101.728;2023-02-13T02:09:42;98242.53;;;-5.22;66.23
45129;BME280;35512;56.312;101.728;2023-02-13T02:15:03;98232.25;;;-4.43;66.07
45129;BME280;35512;56.312;101.728;2023-02-13T02:17:34;98223.78;;;-3.96;65.74
45129;BME280;35512;56.312;101.728;2023-02-13T02:20:23;98231.75;;;-3.42;65.01
45129;BME280;35512;56.312;101.728;2023-02-13T02:38:55;98215.31;;;0.33;62.85
45129;BME280;35512;56.312;101.728;2023-02-13T02:42:06;98217.94;;;0.60;62.19
45129;BME280;35512;56.312;101.728;2023-02-13T02:44:36;98219.47;;;0.83;62.66
45129;BME280;35512;56.312;101.728;2023-02-13T02:47:24;98218.91;;;1.19;62.22
45129;BME280;35512;56.312;101.728;2023-02-13T03:01:34;98192.94;;;3.18;60.16
45129;BME280;35512;56.312;101.728;2023-02-13T03:07:33;98187.03;;;3.27;60.21
45129;BME280;35512;56.312;101.728;2023-02-13T03:10:08;98184.88;;;3.34;60.47
45129;BME280;35512;56.312;101.728;2023-02-13T03:13:14;98191.53;;;3.42;60.30
45129;BME280;35512;56.312;101.728;2023-02-13T03:15:55;98182.94;;;3.60;60.63
45129;BME280;35512;56.312;101.728;2023-02-13T03:18:51;98175.00;;;4.05;59.82
45129;BME280;35512;56.312;101.728;2023-02-13T03:21:58;98181.88;;;4.56;59.11
45129;BME280;35512;56.312;101.728;2023-02-13T03:25:34;98175.38;;;4.97;58.44
45129;BME280;35512;56.312;101.728;2023-02-13T03:42:36;98140.47;;;6.84;57.16
45129;BME280;35512;56.312;101.728;2023-02-13T03:45:18;98147.38;;;6.90;56.73
45129;BME280;35512;56.312;101.728;2023-02-13T03:48:08;98139.13;;;7.00;56.69
45129;BME280;35512;56.312;101.728;2023-02-13T03:50:59;98133.13;;;7.03;56.31
45129;BME280;35512;56.312;101.728;2023-02-13T03:53:32;98123.69;;;7.20;56.64
45129;BME280;35512;56.312;101.728;2023-02-13T03:56:03;98125.19;;;7.54;56.09
45129;BME280;35512;56.312;101.728;2023-02-13T03:58:54;98126.31;;;7.89;56.11
45129;BME280;35512;56.312;101.728;2023-02-13T04:01:49;98116.06;;;8.28;55.80
45129;BME280;35512;56.312;101.728;2023-02-13T04:04:29;98115.94;;;8.56;55.08
45129;BME280;35512;56.312;101.728;2023-02-13T04:07:06;98113.13;;;8.84;55.48
45129;BME280;35512;56.312;101.728;2023-02-13T04:09:38;98098.91;;;9.01;54.61
45129;BME280;35512;56.312;101.728;2023-02-13T04:12:36;98105.53;;;9.35;54.43
45129;BME280;35512;56.312;101.728;2023-02-13T04:15:15;98099.09;;;9.53;53.64
45129;BME280;35512;56.312;101.728;2023-02-13T04:17:50;98090.56;;;9.69;53.72
45129;BME280;35512;56.312;101.728;2023-02-13T04:20:20;98093.75;;;9.71;53.86
45129;BME280;35512;56.312;101.728;2023-02-13T04:22:49;98070.72;;;9.91;53.74
45129;BME280;35512;56.312;101.728;2023-02-13T04:25:18;98088.84;;;10.08;53.69
45129;BME280;35512;56.312;101.728;2023-02-13T04:27:48;98079.94;;;10.16;53.70
45129;BME280;35512;56.312;101.728;2023-02-13T04:30:16;98070.56;;;10.40;53.42
45129;BME280;35512;56.312;101.728;2023-02-13T04:32:45;98067.47;;;10.76;53.51
45129;BME280;35512;56.312;101.728;2023-02-13T04:35:14;98067.69;;;11.01;52.68
45129;BME280;35512;56.312;101.728;2023-02-13T04:37:43;98037.13;;;10.71;51.72
45129;BME280;35512;56.312;101.728;2023-02-13T04:40:12;98052.94;;;10.34;52.26
45129;BME280;35512;56.312;101.728;2023-02-13T04:42:41;98056.41;;;10.34;52.56
45129;BME280;35512;56.312;101.728;2023-02-13T04:45:10;98037.84;;;10.32;52.74
45129;BME280;35512;56.312;101.728;2023-02-13T04:47:39;98049.72;;;10.58;52.38
45129;BME280;35512;56.312;101.728;2023-02-13T04:50:09;98050.88;;;10.95;52.12
45129;BME280;35512;56.312;101.728;2023-02-13T04:52:37;98036.03;;;11.31;51.52
45129;BME280;35512;56.312;101.728;2023-02-13T04:55:06;98040.72;;;11.52;50.61
45129;BME280;35512;56.312;101.728;2023-02-13T04:57:35;98028.56;;;11.37;50.29
45129;BME280;35512;56.312;101.728;2023-02-13T05:00:06;98038.31;;;11.50;50.92
45129;BME280;35512;56.312;101.728;2023-02-13T05:02:35;98031.28;;;11.79;50.92
45129;BME280;35512;56.312;101.728;2023-02-13T05:05:06;98027.03;;;12.12;50.23
45129;BME280;35512;56.312;101.728;2023-02-13T05:07:35;98024.13;;;12.50;49.48
45129;BME280;35512;56.312;101.728;2023-02-13T05:10:04;98016.19;;;12.45;48.47
45129;BME280;35512;56.312;101.728;2023-02-13T05:12:33;98017.63;;;12.30;48.87
45129;BME280;35512;56.312;101.728;2023-02-13T05:15:03;98018.38;;;12.18;49.82
45129;BME280;35512;56.312;101.728;2023-02-13T05:17:32;98009.72;;;12.38;49.51
45129;BME280;35512;56.312;101.728;2023-02-13T05:20:01;98004.34;;;12.62;49.40
45129;BME280;35512;56.312;101.728;2023-02-13T05:22:30;97998.16;;;12.62;48.72
45129;BME280;35512;56.312;101.728;2023-02-13T05:25:17;97998.50;;;12.60;48.27
45129;BME280;35512;56.312;101.728;2023-02-13T05:27:46;97993.22;;;12.76;48.58
45129;BME280;35512;56.312;101.728;2023-02-13T05:30:15;97987.88;;;13.05;48.38
45129;BME280;35512;56.312;101.728;2023-02-13T05:32:44;97976.91;;;13.26;47.74
45129;BME280;35512;56.312;101.728;2023-02-13T05:35:13;97986.63;;;13.27;47.19
45129;BME280;35512;56.312;101.728;2023-02-13T05:37:42;97963.16;;;13.06;47.92
45129;BME280;35512;56.312;101.728;2023-02-13T05:40:11;97966.06;;;13.13;47.75
45129;BME280;35512;56.312;101.728;2023-02-13T05:42:41;97965.53;;;13.08;47.36
45129;BME280;35512;56.312;101.728;2023-02-13T05:45:10;97965.72;;;13.15;47.36
45129;BME280;35512;56.312;101.728;2023-02-13T05:47:39;97961.38;;;13.51;47.18
45129;BME280;35512;56.312;101.728;2023-02-13T05:50:08;97955.28;;;13.54;46.45
45129;BME280;35512;56.312;101.728;2023-02-13T05:52:37;97949.56;;;13.31;46.09
45129;BME280;35512;56.312;101.728;2023-02-13T05:55:06;97937.56;;;13.19;45.68
45129;BME280;35512;56.312;101.728;2023-02-13T05:57:35;97935.91;;;13.15;45.46
45129;BME280;35512;56.312;101.728;2023-02-13T06:00:05;97937.81;;;13.39;45.74
45129;BME280;35512;56.312;101.728;2023-02-13T06:02:35;97933.69;;;13.45;44.43
45129;BME280;35512;56.312;101.728;2023-02-13T06:05:04;97926.09;;;13.10;43.72
45129;BME280;35512;56.312;101.728;2023-02-13T06:07:33;97922.28;;;12.62;43.44
45129;BME280;35512;56.312;101.728;2023-02-13T06:10:02;97913.44;;;12.28;43.33
45129;BME280;35512;56.312;101.728;2023-02-13T06:12:31;97907.34;;;11.85;42.82
45129;BME280;35512;56.312;101.728;2023-02-13T06:15:00;97913.81;;;11.59;43.24
45129;BME280;35512;56.312;101.728;2023-02-13T06:17:29;97913.91;;;11.63;42.38
45129;BME280;35512;56.312;101.728;2023-02-13T06:19:58;97898.97;;;11.78;42.84
45129;BME280;35512;56.312;101.728;2023-02-13T06:22:27;97892.81;;;11.90;42.51
45129;BME280;35512;56.312;101.728;2023-02-13T06:24:56;97891.63;;;12.12;42.57
45129;BME280;35512;56.312;101.728;2023-02-13T06:27:25;97893.59;;;12.36;42.37
45129;BME280;35512;56.312;101.728;2023-02-13T06:29:53;97887.94;;;12.29;41.17
45129;BME280;35512;56.312;101.728;2023-02-13T06:32:22;97887.38;;;12.36;42.15
45129;BME280;35512;56.312;101.728;2023-02-13T06:34:51;97883.09;;;12.47;41.51
45129;BME280;35512;56.312;101.728;2023-02-13T06:37:20;97881.97;;;12.60;42.68
45129;BME280;35512;56.312;101.728;2023-02-13T06:39:49;97873.81;;;13.26;42.15
45129;BME280;35512;56.312;101.728;2023-02-13T06:42:18;97874.81;;;13.62;40.51
45129;BME280;35512;56.312;101.728;2023-02-13T06:44:47;97873.59;;;13.31;40.77
45129;BME280;35512;56.312;101.728;2023-02-13T06:47:16;97864.56;;;13.27;41.48
45129;BME280;35512;56.312;101.728;2023-02-13T06:49:45;97863.56;;;13.19;40.89
45129;BME280;35512;56.312;101.728;2023-02-13T06:52:14;97859.28;;;13.06;40.66
45129;BME280;35512;56.312;101.728;2023-02-13T06:54:43;97856.72;;;12.97;41.25
45129;BME280;35512;56.312;101.728;2023-02-13T06:57:15;97843.28;;;12.88;40.68
45129;BME280;35512;56.312;101.728;2023-02-13T06:59:43;97842.56;;;12.63;41.18
45129;BME280;35512;56.312;101.728;2023-02-13T07:02:13;97841.41;;;12.76;41.43
45129;BME280;35512;56.312;101.728;2023-02-13T07:04:42;97840.06;;;13.11;41.40
45129;BME280;35512;56.312;101.728;2023-02-13T07:07:11;97832.75;;;13.40;40.97
45129;BME280;35512;56.312;101.728;2023-02-13T07:09:40;97822.31;;;13.70;40.43
45129;BME280;35512;56.312;101.728;2023-02-13T07:12:09;97822.81;;;13.60;41.11
45129;BME280;35512;56.312;101.728;2023-02-13T07:14:38;97818.09;;;13.28;40.05
45129;BME280;35512;56.312;101.728;2023-02-13T07:17:06;97809.25;;;13.03;40.21
45129;BME280;35512;56.312;101.728;2023-02-13T07:19:35;97795.44;;;12.67;39.79
45129;BME280;35512;56.312;101.728;2023-02-13T07:22:04;97804.03;;;12.70;40.65
45129;BME280;35512;56.312;101.728;2023-02-13T07:24:33;97801.25;;;12.54;41.12
45129;BME280;35512;56.312;101.728;2023-02-13T07:27:03;97784.28;;;12.57;41.25
45129;BME280;35512;56.312;101.728;2023-02-13T07:29:32;97785.19;;;11.28;40.06
45129;BME280;35512;56.312;101.728;2023-02-13T07:32:01;97786.19;;;9.06;42.03
45129;BME280;35512;56.312;101.728;2023-02-13T07:34:30;97783.72;;;6.54;44.16
45129;BME280;35512;56.312;101.728;2023-02-13T07:36:59;97771.19;;;4.34;46.09
45129;BME280;35512;56.312;101.728;2023-02-13T07:39:28;97772.41;;;2.57;48.39
45129;BME280;35512;56.312;101.728;2023-02-13T07:41:59;97773.66;;;1.44;48.99
45129;BME280;35512;56.312;101.728;2023-02-13T07:44:27;97771.50;;;0.28;49.67
45129;BME280;35512;56.312;101.728;2023-02-13T07:46:57;97777.16;;;-0.70;49.78
45129;BME280;35512;56.312;101.728;2023-02-13T07:49:25;97769.94;;;-1.44;50.22
45129;BME280;35512;56.312;101.728;2023-02-13T07:51:56;97775.03;;;-2.14;50.86
45129;BME280;35512;56.312;101.728;2023-02-13T07:54:25;97769.53;;;-2.52;51.48
45129;BME280;35512;56.312;101.728;2023-02-13T07:56:54;97775.50;;;-2.79;51.23
45129;BME280;35512;56.312;101.728;2023-02-13T07:59:24;97763.41;;;-3.09;52.19
45129;BME280;35512;56.312;101.728;2023-02-13T08:01:53;97765.78;;;-3.41;51.67
45129;BME280;35512;56.312;101.728;2023-02-13T08:04:22;97767.47;;;-3.81;52.16
45129;BME280;35512;56.312;101.728;2023-02-13T08:06:53;97749.84;;;-3.92;52.92
45129;BME280;35512;56.312;101.728;2023-02-13T08:09:21;97757.63;;;-1.61;53.17
45129;BME280;35512;56.312;101.728;2023-02-13T08:12:09;97751.00;;;1.62;50.81
45129;BME280;35512;56.312;101.728;2023-02-13T08:14:39;97749.31;;;3.89;48.38
45129;BME280;35512;56.312;101.728;2023-02-13T08:17:08;97755.72;;;5.35;46.98
45129;BME280;35512;56.312;101.728;2023-02-13T08:19:37;97748.56;;;6.42;47.51
45129;BME280;35512;56.312;101.728;2023-02-13T08:22:06;97741.91;;;7.21;46.59
45129;BME280;35512;56.312;101.728;2023-02-13T08:24:35;97734.53;;;7.76;46.00
45129;BME280;35512;56.312;101.728;2023-02-13T08:27:04;97734.63;;;8.11;45.71
45129;BME280;35512;56.312;101.728;2023-02-13T08:29:33;97733.06;;;8.10;45.45
45129;BME280;35512;56.312;101.728;2023-02-13T08:32:02;97723.63;;;7.72;45.66
45129;BME280;35512;56.312;101.728;2023-02-13T08:34:31;97720.84;;;7.46;45.81
45129;BME280;35512;56.312;101.728;2023-02-13T08:37:01;97707.84;;;7.08;46.22
45129;BME280;35512;56.312;101.728;2023-02-13T08:39:30;97707.97;;;7.03;46.00
45129;BME280;35512;56.312;101.728;2023-02-13T08:41:59;97692.03;;;6.84;46.16
45129;BME280;35512;56.312;101.728;2023-02-13T08:44:27;97695.28;;;6.72;45.96
45129;BME280;35512;56.312;101.728;2023-02-13T08:46:56;97691.31;;;6.47;46.26
45129;BME280;35512;56.312;101.728;2023-02-13T08:49:25;97684.72;;;6.30;46.43
45129;BME280;35512;56.312;101.728;2023-02-13T08:51:54;97676.81;;;5.97;46.77
45129;BME280;35512;56.312;101.728;2023-02-13T08:54:23;97665.34;;;5.69;46.84
45129;BME280;35512;56.312;101.728;2023-02-13T08:56:52;97661.28;;;5.16;44.78
45129;BME280;35512;56.312;101.728;2023-02-13T08:59:21;97659.13;;;4.52;45.76
45129;BME280;35512;56.312;101.728;2023-02-13T09:01:50;97657.81;;;4.16;44.96
45129;BME280;35512;56.312;101.728;2023-02-13T09:04:19;97656.72;;;3.79;45.73
45129;BME280;35512;56.312;101.728;2023-02-13T09:06:48;97646.91;;;3.50;45.37
45129;BME280;35512;56.312;101.728;2023-02-13T09:09:17;97647.16;;;3.06;45.71
45129;BME280;35512;56.312;101.728;2023-02-13T09:11:46;97634.19;;;2.64;45.53
45129;BME280;35512;56.312;101.728;2023-02-13T09:14:16;97642.00;;;2.21;45.69
45129;BME280;35512;56.312;101.728;2023-02-13T09:16:44;97637.16;;;1.89;45.77
45129;BME280;35512;56.312;101.728;2023-02-13T09:19:13;97639.78;;;1.39;45.19
45129;BME280;35512;56.312;101.728;2023-02-13T09:21:42;97611.28;;;0.43;45.69
45129;BME280;35512;56.312;101.728;2023-02-13T09:24:11;97628.16;;;-0.36;46.85
45129;BME280;35512;56.312;101.728;2023-02-13T09:26:40;97632.84;;;-1.59;48.02
45129;BME280;35512;56.312;101.728;2023-02-13T09:29:09;97633.22;;;-2.82;49.41
45129;BME280;35512;56.312;101.728;2023-02-13T09:31:38;97621.19;;;-3.85;50.61
45129;BME280;35512;56.312;101.728;2023-02-13T09:34:07;97630.91;;;-4.48;50.98
45129;BME280;35512;56.312;101.728;2023-02-13T09:36:36;97627.25;;;-5.00;53.46
45129;BME280;35512;56.312;101.728;2023-02-13T09:39:05;97629.25;;;-5.43;53.38
45129;BME280;35512;56.312;101.728;2023-02-13T09:41:38;97630.59;;;-5.87;53.12
45129;BME280;35512;56.312;101.728;2023-02-13T09:50:09;97618.53;;;-7.17;54.02
45129;BME280;35512;56.312;101.728;2023-02-13T09:52:43;97619.97;;;-7.39;53.63
45129;BME280;35512;56.312;101.728;2023-02-13T10:00:57;97608.84;;;-8.04;54.01
45129;BME280;35512;56.312;101.728;2023-02-13T10:03:31;97604.09;;;-8.20;53.80
45129;BME280;35512;56.312;101.728;2023-02-13T10:11:42;97599.75;;;-8.58;54.67
45129;BME280;35512;56.312;101.728;2023-02-13T10:14:34;97605.03;;;-8.72;54.50
45129;BME280;35512;56.312;101.728;2023-02-13T10:17:56;97600.28;;;-8.88;54.79
45129;BME280;35512;56.312;101.728;2023-02-13T10:20:02;97599.50;;;-8.89;54.32
45129;BME280;35512;56.312;101.728;2023-02-13T10:22:46;97585.06;;;-9.05;55.69
45129;BME280;35512;56.312;101.728;2023-02-13T10:25:23;97593.13;;;-9.13;55.18
45129;BME280;35512;56.312;101.728;2023-02-13T10:27:59;97585.13;;;-9.25;55.80
45129;BME280;35512;56.312;101.728;2023-02-13T10:30:35;97585.56;;;-9.35;55.78
45129;BME280;35512;56.312;101.728;2023-02-13T10:33:24;97574.13;;;-9.47;56.10
45129;BME280;35512;56.312;101.728;2023-02-13T10:38:52;97570.72;;;-9.61;56.54
45129;BME280;35512;56.312;101.728;2023-02-13T10:53:04;97567.31;;;-9.75;56.49
45129;BME280;35512;56.312;101.728;2023-02-13T10:55:59;97557.06;;;-9.83;57.54
45129;BME280;35512;56.312;101.728;2023-02-13T11:01:38;97560.50;;;-9.82;56.88
45129;BME280;35512;56.312;101.728;2023-02-13T11:04:13;97555.88;;;-9.80;57.14
45129;BME280;35512;56.312;101.728;2023-02-13T11:06:56;97546.63;;;-9.83;57.21
45129;BME280;35512;56.312;101.728;2023-02-13T11:09:27;97547.03;;;-9.86;56.93
45129;BME280;35512;56.312;101.728;2023-02-13T11:11:56;97540.59;;;-9.90;56.95
45129;BME280;35512;56.312;101.728;2023-02-13T11:14:26;97542.63;;;-9.92;57.14
45129;BME280;35512;56.312;101.728;2023-02-13T11:17:05;97525.56;;;-10.08;57.71
45129;BME280;35512;56.312;101.728;2023-02-13T11:19:48;97538.41;;;-10.00;57.95
45129;BME280;35512;56.312;101.728;2023-02-13T11:22:29;97542.81;;;-9.94;57.74
45129;BME280;35512;56.312;101.728;2023-02-13T11:25:11;97537.41;;;-9.99;57.74
45129;BME280;35512;56.312;101.728;2023-02-13T11:27:45;97536.22;;;-9.96;58.00
45129;BME280;35512;56.312;101.728;2023-02-13T11:33:03;97530.16;;;-9.83;58.07
45129;BME280;35512;56.312;101.728;2023-02-13T11:35:36;97527.53;;;-9.83;58.04
45129;BME280;35512;56.312;101.728;2023-02-13T11:40:45;97508.66;;;-9.99;58.27
45129;BME280;35512;56.312;101.728;2023-02-13T11:46:47;97533.38;;;-9.88;58.88
45129;BME280;35512;56.312;101.728;2023-02-13T11:49:50;97526.34;;;-9.88;57.95
45129;BME280;35512;56.312;101.728;2023-02-13T11:52:35;97522.72;;;-9.93;59.43
45129;BME280;35512;56.312;101.728;2023-02-13T11:55:32;97524.72;;;-9.95;59.08
45129;BME280;35512;56.312;101.728;2023-02-13T12:00:45;97504.63;;;-9.95;58.63
45129;BME280;35512;56.312;101.728;2023-02-13T12:06:01;97520.91;;;-9.99;59.28
45129;BME280;35512;56.312;101.728;2023-02-13T12:08:33;97520.91;;;-10.06;59.19
45129;BME280;35512;56.312;101.728;2023-02-13T12:11:53;97507.69;;;-10.11;59.76
45129;BME280;35512;56.312;101.728;2023-02-13T12:13:56;97519.34;;;-10.07;59.91
45129;BME280;35512;56.312;101.728;2023-02-13T12:16:45;97517.31;;;-10.12;60.38
45129;BME280;35512;56.312;101.728;2023-02-13T12:19:45;97512.91;;;-10.18;60.53
45129;BME280;35512;56.312;101.728;2023-02-13T12:25:12;97495.19;;;-9.96;59.73
45129;BME280;35512;56.312;101.728;2023-02-13T12:30:58;97496.56;;;-9.80;59.67
45129;BME280;35512;56.312;101.728;2023-02-13T12:33:59;97481.47;;;-9.78;59.96
45129;BME280;35512;56.312;101.728;2023-02-13T12:39:32;97481.44;;;-9.71;59.00
45129;BME280;35512;56.312;101.728;2023-02-13T12:50:31;97458.09;;;-9.59;58.64
45129;BME280;35512;56.312;101.728;2023-02-13T12:53:13;97465.28;;;-9.55;58.31
45129;BME280;35512;56.312;101.728;2023-02-13T13:01:58;97445.13;;;-9.47;58.45
45129;BME280;35512;56.312;101.728;2023-02-13T13:07:44;97439.34;;;-9.49;57.67
45129;BME280;35512;56.312;101.728;2023-02-13T13:16:07;97418.84;;;-9.53;57.98
45129;BME280;35512;56.312;101.728;2023-02-13T13:19:03;97408.97;;;-9.57;58.43
45129;BME280;35512;56.312;101.728;2023-02-13T13:21:38;97420.47;;;-9.58;57.67
45129;BME280;35512;56.312;101.728;2023-02-13T13:25:17;97403.00;;;-9.64;59.08
45129;BME280;35512;56.312;101.728;2023-02-13T13:27:28;97411.25;;;-9.68;58.39
45129;BME280;35512;56.312;101.728;2023-02-13T13:30:18;97406.41;;;-9.71;58.82
45129;BME280;35512;56.312;101.728;2023-02-13T13:41:00;97403.25;;;-9.79;59.20
45129;BME280;35512;56.312;101.728;2023-02-13T13:44:03;97400.44;;;-9.78;59.35
45129;BME280;35512;56.312;101.728;2023-02-13T13:52:39;97388.41;;;-9.86;60.18
45129;BME280;35512;56.312;101.728;2023-02-13T13:58:35;97384.56;;;-9.83;59.41
45129;BME280;35512;56.312;101.728;2023-02-13T14:03:57;97372.31;;;-9.82;59.30
45129;BME280;35512;56.312;101.728;2023-02-13T14:09:43;97361.25;;;-9.85;59.81
45129;BME280;35512;56.312;101.728;2023-02-13T14:14:53;97352.63;;;-9.85;59.33
45129;BME280;35512;56.312;101.728;2023-02-13T14:20:40;97343.78;;;-9.84;59.98
45129;BME280;35512;56.312;101.728;2023-02-13T14:34:01;97335.28;;;-9.79;60.00
45129;BME280;35512;56.312;101.728;2023-02-13T14:36:36;97331.88;;;-9.80;59.87
45129;BME280;35512;56.312;101.728;2023-02-13T14:39:28;97322.03;;;-9.85;60.75
45129;BME280;35512;56.312;101.728;2023-02-13T14:41:59;97317.84;;;-9.86;60.25
45129;BME280;35512;56.312;101.728;2023-02-13T14:44:45;97316.81;;;-9.85;60.49
45129;BME280;35512;56.312;101.728;2023-02-13T14:47:32;97317.84;;;-9.86;60.48
45129;BME280;35512;56.312;101.728;2023-02-13T14:50:05;97313.19;;;-9.83;60.35
45129;BME280;35512;56.312;101.728;2023-02-13T14:52:37;97318.41;;;-9.83;59.89
45129;BME280;35512;56.312;101.728;2023-02-13T14:55:26;97313.41;;;-9.85;60.18
45129;BME280;35512;56.312;101.728;2023-02-13T14:58:27;97307.59;;;-9.94;60.87
45129;BME280;35512;56.312;101.728;2023-02-13T15:01:17;97306.81;;;-9.94;61.17
45129;BME280;35512;56.312;101.728;2023-02-13T15:03:56;97305.84;;;-10.00;60.85
45129;BME280;35512;56.312;101.728;2023-02-13T15:06:39;97295.00;;;-10.04;61.01
45129;BME280;35512;56.312;101.728;2023-02-13T15:11:48;97309.84;;;-9.97;60.93
45129;BME280;35512;56.312;101.728;2023-02-13T15:14:38;97305.63;;;-9.98;61.19
45129;BME280;35512;56.312;101.728;2023-02-13T15:19:44;97297.78;;;-9.98;61.11
45129;BME280;35512;56.312;101.728;2023-02-13T15:22:36;97290.75;;;-9.98;61.20
45129;BME280;35512;56.312;101.728;2023-02-13T15:25:07;97284.53;;;-10.04;61.01
45129;BME280;35512;56.312;101.728;2023-02-13T15:27:42;97277.53;;;-10.03;60.84
45129;BME280;35512;56.312;101.728;2023-02-13T15:30:22;97287.94;;;-9.96;60.87
45129;BME280;35512;56.312;101.728;2023-02-13T15:33:00;97276.94;;;-10.12;61.39
45129;BME280;35512;56.312;101.728;2023-02-13T15:35:30;97290.16;;;-10.00;61.10
45129;BME280;35512;56.312;101.728;2023-02-13T15:38:23;97278.94;;;-10.07;61.93
45129;BME280;35512;56.312;101.728;2023-02-13T15:40:57;97300.63;;;-10.00;61.46
45129;BME280;35512;56.312;101.728;2023-02-13T15:43:36;97296.19;;;-9.99;61.85
45129;BME280;35512;56.312;101.728;2023-02-13T15:46:27;97293.78;;;-10.01;61.67
45129;BME280;35512;56.312;101.728;2023-02-13T15:48:58;97293.03;;;-10.08;61.19
45129;BME280;35512;56.312;101.728;2023-02-13T15:51:29;97282.81;;;-10.16;61.55
45129;BME280;35512;56.312;101.728;2023-02-13T15:54:00;97286.84;;;-10.21;61.92
45129;BME280;35512;56.312;101.728;2023-02-13T15:56:30;97282.88;;;-10.30;62.19
45129;BME280;35512;56.312;101.728;2023-02-13T15:58:59;97273.91;;;-10.41;61.69
45129;BME280;35512;56.312;101.728;2023-02-13T16:01:30;97271.94;;;-10.52;62.24
45129;BME280;35512;56.312;101.728;2023-02-13T16:04:04;97276.53;;;-10.54;62.74
45129;BME280;35512;56.312;101.728;2023-02-13T16:06:34;97265.72;;;-10.58;62.38
45129;BME280;35512;56.312;101.728;2023-02-13T16:09:04;97262.31;;;-10.58;62.88
45129;BME280;35512;56.312;101.728;2023-02-13T16:11:43;97242.84;;;-10.69;62.68
45129;BME280;35512;56.312;101.728;2023-02-13T16:14:22;97258.88;;;-10.52;62.56